sensor_id;sensor_type;location;lat;lon;timestamp;pressure;altitude;pressure_sealevel;temperature;humidity
23733;BME280;12047;53.450;-2.286;2022-10-26T00:03:35;99996.53;;;19.14;100.00
23733;BME280;12047;53.450;-2.286;2022-10-26T00:15:00;99989.94;;;19.67;100.00
23733;BME280;12047;53.450;-2.286;2022-10-26T00:31:48;99965.63;;;19.49;100.00
23733;BME280;12047;53.450;-2.286;2022-10-26T00:37:14;99962.81;;;19.76;100.00
23733;BME280;12047;53.450;-2.286;2022-10-26T00:42:26;99955.59;;;19.76;100.00
23733;BME280;12047;53.450;-2.286;2022-10-26T00:47:44;99947.78;;;19.99;100.00
23733;BME280;12047;53.450;-2.286;2022-10-26T00:52:47;99932.50;;;19.62;100.00
23733;BME280;12047;53.450;-2.286;2022-10-26T00:57:59;99934.97;;;19.95;100.00
23733;BME280;12047;53.450;-2.286;2022-10-26T01:03:33;99931.59;;;19.75;100.00
23733;BME280;12047;53.450;-2.286;2022-10-26T01:14:37;99911.47;;;19.84;100.00
23733;BME280;12047;53.450;-2.286;2022-10-26T01:31:04;99893.09;;;20.05;100.00
23733;BME280;12047;53.450;-2.286;2022-10-26T01:53:08;99887.47;;;19.89;100.00
23733;BME280;12047;53.450;-2.286;2022-10-26T02:16:15;99864.88;;;19.96;100.00
23733;BME280;12047;53.450;-2.286;2022-10-26T02:21:46;99857.78;;;19.77;100.00
23733;BME280;12047;53.450;-2.286;2022-10-26T02:27:02;99865.25;;;19.75;100.00
23733;BME280;12047;53.450;-2.286;2022-10-26T02:38:24;99843.13;;;19.73;100.00
23733;BME280;12047;53.450;-2.286;2022-10-26T02:43:47;99836.94;;;19.97;100.00
23733;BME280;12047;53.450;-2.286;2022-10-26T02:55:17;99832.03;;;19.88;100.00
23733;BME280;12047;53.450;-2.286;2022-10-26T03:06:27;99818.34;;;19.71;100.00
23733;BME280;12047;53.450;-2.286;2022-10-26T03:17:25;99811.53;;;19.68;100.00
23733;BME280;12047;53.450;-2.286;2022-10-26T03:22:41;99811.94;;;20.15;100.00
23733;BME280;12047;53.450;-2.286;2022-10-26T03:27:53;99822.53;;;19.85;100.00
23733;BME280;12047;53.450;-2.286;2022-10-26T03:32:55;99822.00;;;19.77;100.00
23733;BME280;12047;53.450;-2.286;2022-10-26T03:38:04;99810.50;;;20.13;100.00
23733;BME280;12047;53.450;-2.286;2022-10-26T03:43:26;99805.75;;;19.90;100.00
23733;BME280;12047;53.450;-2.286;2022-10-26T03:48:29;99806.50;;;20.22;100.00
23733;BME280;12047;53.450;-2.286;2022-10-26T03:53:33;99811.31;;;20.38;100.00
23733;BME280;12047;53.450;-2.286;2022-10-26T03:58:34;99803.03;;;20.40;100.00
23733;BME280;12047;53.450;-2.286;2022-10-26T04:03:34;99804.06;;;20.38;100.00
23733;BME280;12047;53.450;-2.286;2022-10-26T04:08:35;99807.91;;;20.49;100.00
23733;BME280;12047;53.450;-2.286;2022-10-26T04:13:36;99810.50;;;20.74;100.00
23733;BME280;12047;53.450;-2.286;2022-10-26T04:18:36;99823.28;;;20.79;100.00
23733;BME280;12047;53.450;-2.286;2022-10-26T04:23:46;99833.38;;;20.65;100.00
23733;BME280;12047;53.450;-2.286;2022-10-26T04:28:47;99829.16;;;20.87;100.00
23733;BME280;12047;53.450;-2.286;2022-10-26T04:39:29;99829.75;;;20.89;100.00
23733;BME280;12047;53.450;-2.286;2022-10-26T04:44:30;99833.50;;;20.88;100.00
23733;BME280;12047;53.450;-2.286;2022-10-26T04:49:31;99842.44;;;20.70;100.00
23733;BME280;12047;53.450;-2.286;2022-10-26T05:01:02;99833.31;;;20.53;100.00
23733;BME280;12047;53.450;-2.286;2022-10-26T05:06:23;99837.78;;;20.59;100.00
23733;BME280;12047;53.450;-2.286;2022-10-26T05:11:32;99848.16;;;20.56;100.00
23733;BME280;12047;53.450;-2.286;2022-10-26T05:16:45;99840.34;;;20.29;100.00
23733;BME280;12047;53.450;-2.286;2022-10-26T05:21:46;99835.22;;;20.28;100.00
23733;BME280;12047;53.450;-2.286;2022-10-26T05:26:47;99831.47;;;20.29;100.00
23733;BME280;12047;53.450;-2.286;2022-10-26T05:31:57;99835.81;;;20.05;100.00
23733;BME280;12047;53.450;-2.286;2022-10-26T05:36:57;99849.53;;;20.47;100.00
23733;BME280;12047;53.450;-2.286;2022-10-26T05:54:02;99853.53;;;20.13;100.00
23733;BME280;12047;53.450;-2.286;2022-10-26T06:05:25;99855.63;;;19.86;100.00
23733;BME280;12047;53.450;-2.286;2022-10-26T06:10:34;99851.34;;;19.09;100.00
23733;BME280;12047;53.450;-2.286;2022-10-26T06:15:53;99855.56;;;19.67;100.00
23733;BME280;12047;53.450;-2.286;2022-10-26T06:43:30;99854.38;;;19.88;100.00
23733;BME280;12047;53.450;-2.286;2022-10-26T06:55:12;99861.09;;;20.04;100.00
23733;BME280;12047;53.450;-2.286;2022-10-26T07:05:29;99874.06;;;20.07;100.00
23733;BME280;12047;53.450;-2.286;2022-10-26T07:11:07;99878.09;;;19.98;100.00
23733;BME280;12047;53.450;-2.286;2022-10-26T07:22:12;99874.19;;;19.94;100.00
23733;BME280;12047;53.450;-2.286;2022-10-26T07:27:39;99868.84;;;20.12;100.00
23733;BME280;12047;53.450;-2.286;2022-10-26T07:32:44;99888.66;;;19.93;100.00
23733;BME280;12047;53.450;-2.286;2022-10-26T07:37:59;99890.13;;;20.63;100.00
23733;BME280;12047;53.450;-2.286;2022-10-26T07:43:18;99878.75;;;19.93;100.00
23733;BME280;12047;53.450;-2.286;2022-10-26T07:49:07;99917.78;;;20.52;100.00
23733;BME280;12047;53.450;-2.286;2022-10-26T08:00:31;99922.75;;;20.24;100.00
23733;BME280;12047;53.450;-2.286;2022-10-26T08:05:52;99941.47;;;20.12;100.00
23733;BME280;12047;53.450;-2.286;2022-10-26T08:16:56;99947.78;;;20.24;100.00
23733;BME280;12047;53.450;-2.286;2022-10-26T08:22:07;99954.13;;;20.05;100.00
23733;BME280;12047;53.450;-2.286;2022-10-26T08:33:08;99964.06;;;21.22;100.00
23733;BME280;12047;53.450;-2.286;2022-10-26T08:44:27;99971.19;;;20.74;100.00
23733;BME280;12047;53.450;-2.286;2022-10-26T08:56:05;100000.78;;;20.98;100.00
23733;BME280;12047;53.450;-2.286;2022-10-26T09:01:08;100001.25;;;21.32;100.00
23733;BME280;12047;53.450;-2.286;2022-10-26T09:24:53;100037.41;;;21.24;100.00
23733;BME280;12047;53.450;-2.286;2022-10-26T09:30:24;100036.41;;;21.55;100.00
23733;BME280;12047;53.450;-2.286;2022-10-26T09:35:42;100047.22;;;22.33;100.00
23733;BME280;12047;53.450;-2.286;2022-10-26T10:23:50;100121.72;;;22.64;100.00
23733;BME280;12047;53.450;-2.286;2022-10-26T10:29:47;100138.16;;;22.63;100.00
23733;BME280;12047;53.450;-2.286;2022-10-26T11:40:58;100219.06;;;22.21;100.00
23733;BME280;12047;53.450;-2.286;2022-10-26T11:57:37;100260.72;;;22.07;100.00
23733;BME280;12047;53.450;-2.286;2022-10-26T12:20:59;100361.88;;;20.19;100.00
23733;BME280;12047;53.450;-2.286;2022-10-26T13:25:15;100392.25;;;21.24;100.00
23733;BME280;12047;53.450;-2.286;2022-10-26T13:30:51;100394.94;;;21.11;100.00
23733;BME280;12047;53.450;-2.286;2022-10-26T13:36:10;100395.44;;;21.46;100.00
23733;BME280;12047;53.450;-2.286;2022-10-26T13:41:57;100391.91;;;21.45;100.00
23733;BME280;12047;53.450;-2.286;2022-10-26T13:52:58;100396.28;;;21.78;100.00
23733;BME280;12047;53.450;-2.286;2022-10-26T13:58:24;100399.63;;;21.35;100.00
23733;BME280;12047;53.450;-2.286;2022-10-26T14:03:40;100405.63;;;21.37;100.00
23733;BME280;12047;53.450;-2.286;2022-10-26T14:09:10;100399.63;;;21.35;100.00
23733;BME280;12047;53.450;-2.286;2022-10-26T14:14:48;100391.16;;;21.63;100.00
23733;BME280;12047;53.450;-2.286;2022-10-26T15:09:50;100468.50;;;21.18;100.00
23733;BME280;12047;53.450;-2.286;2022-10-26T15:58:16;100519.38;;;20.68;100.00
23733;BME280;12047;53.450;-2.286;2022-10-26T16:03:53;100528.28;;;20.75;100.00
23733;BME280;12047;53.450;-2.286;2022-10-26T16:33:02;100576.72;;;20.42;100.00
23733;BME280;12047;53.450;-2.286;2022-10-26T16:50:48;100611.66;;;20.35;100.00
23733;BME280;12047;53.450;-2.286;2022-10-26T16:56:04;100612.97;;;20.59;100.00
23733;BME280;12047;53.450;-2.286;2022-10-26T17:01:06;100609.91;;;19.95;100.00
23733;BME280;12047;53.450;-2.286;2022-10-26T17:06:09;100621.91;;;20.05;100.00
23733;BME280;12047;53.450;-2.286;2022-10-26T17:11:17;100628.72;;;19.95;100.00
23733;BME280;12047;53.450;-2.286;2022-10-26T17:16:22;100632.63;;;20.40;100.00
23733;BME280;12047;53.450;-2.286;2022-10-26T17:21:31;100641.91;;;19.77;100.00
23733;BME280;12047;53.450;-2.286;2022-10-26T17:26:33;100652.03;;;20.35;100.00
23733;BME280;12047;53.450;-2.286;2022-10-26T17:32:05;100664.31;;;19.97;100.00
23733;BME280;12047;53.450;-2.286;2022-10-26T17:49:36;100699.78;;;20.20;100.00
23733;BME280;12047;53.450;-2.286;2022-10-26T17:54:37;100714.63;;;20.10;100.00
23733;BME280;12047;53.450;-2.286;2022-10-26T17:59:40;100725.19;;;20.11;100.00
23733;BME280;12047;53.450;-2.286;2022-10-26T18:04:43;100731.63;;;19.76;100.00
23733;BME280;12047;53.450;-2.286;2022-10-26T18:09:47;100747.84;;;19.89;100.00
23733;BME280;12047;53.450;-2.286;2022-10-26T18:14:47;100753.47;;;19.66;100.00
23733;BME280;12047;53.450;-2.286;2022-10-26T18:19:53;100760.47;;;19.39;100.00
23733;BME280;12047;53.450;-2.286;2022-10-26T18:25:03;100763.06;;;19.26;100.00
23733;BME280;12047;53.450;-2.286;2022-10-26T18:30:04;100768.44;;;19.26;100.00
23733;BME280;12047;53.450;-2.286;2022-10-26T18:35:06;100781.59;;;19.42;100.00
23733;BME280;12047;53.450;-2.286;2022-10-26T18:40:10;100784.94;;;19.23;100.00
23733;BME280;12047;53.450;-2.286;2022-10-26T18:45:11;100798.94;;;19.18;100.00
23733;BME280;12047;53.450;-2.286;2022-10-26T18:50:12;100797.38;;;19.30;100.00
23733;BME280;12047;53.450;-2.286;2022-10-26T18:55:13;100808.31;;;19.08;100.00
23733;BME280;12047;53.450;-2.286;2022-10-26T19:00:14;100817.72;;;18.97;100.00
23733;BME280;12047;53.450;-2.286;2022-10-26T19:05:14;100816.72;;;18.83;100.00
23733;BME280;12047;53.450;-2.286;2022-10-26T19:10:15;100825.38;;;18.79;100.00
23733;BME280;12047;53.450;-2.286;2022-10-26T19:15:16;100830.75;;;18.79;100.00
23733;BME280;12047;53.450;-2.286;2022-10-26T19:20:19;100832.16;;;18.60;100.00
23733;BME280;12047;53.450;-2.286;2022-10-26T19:25:20;100844.78;;;18.81;100.00
23733;BME280;12047;53.450;-2.286;2022-10-26T19:30:23;100846.13;;;18.55;100.00
23733;BME280;12047;53.450;-2.286;2022-10-26T19:35:24;100841.59;;;18.56;100.00
23733;BME280;12047;53.450;-2.286;2022-10-26T19:40:25;100848.53;;;18.65;100.00
23733;BME280;12047;53.450;-2.286;2022-10-26T19:45:25;100858.44;;;18.79;100.00
23733;BME280;12047;53.450;-2.286;2022-10-26T19:50:26;100861.22;;;18.71;100.00
23733;BME280;12047;53.450;-2.286;2022-10-26T19:55:27;100869.22;;;19.00;100.00
23733;BME280;12047;53.450;-2.286;2022-10-26T20:00:28;100870.81;;;18.51;100.00
23733;BME280;12047;53.450;-2.286;2022-10-26T20:05:29;100877.66;;;18.53;100.00
23733;BME280;12047;53.450;-2.286;2022-10-26T20:10:30;100878.50;;;18.68;100.00
23733;BME280;12047;53.450;-2.286;2022-10-26T20:15:31;100877.69;;;18.68;100.00
23733;BME280;12047;53.450;-2.286;2022-10-26T20:20:34;100885.06;;;18.51;100.00
23733;BME280;12047;53.450;-2.286;2022-10-26T20:25:48;100900.53;;;18.64;100.00
23733;BME280;12047;53.450;-2.286;2022-10-26T20:30:59;100894.84;;;18.59;100.00
23733;BME280;12047;53.450;-2.286;2022-10-26T20:36:00;100906.06;;;18.48;100.00
23733;BME280;12047;53.450;-2.286;2022-10-26T20:41:01;100904.94;;;18.42;100.00
23733;BME280;12047;53.450;-2.286;2022-10-26T20:46:02;100907.75;;;18.63;100.00
23733;BME280;12047;53.450;-2.286;2022-10-26T20:51:13;100909.47;;;18.42;100.00
23733;BME280;12047;53.450;-2.286;2022-10-26T20:56:21;100914.59;;;18.51;100.00
23733;BME280;12047;53.450;-2.286;2022-10-26T21:01:26;100927.50;;;18.33;100.00
23733;BME280;12047;53.450;-2.286;2022-10-26T21:06:27;100933.31;;;18.74;100.00
23733;BME280;12047;53.450;-2.286;2022-10-26T21:11:28;100947.63;;;18.81;100.00
23733;BME280;12047;53.450;-2.286;2022-10-26T21:16:29;100965.78;;;18.64;100.00
23733;BME280;12047;53.450;-2.286;2022-10-26T21:21:29;100974.72;;;18.42;100.00
23733;BME280;12047;53.450;-2.286;2022-10-26T21:26:30;100972.19;;;18.78;100.00
23733;BME280;12047;53.450;-2.286;2022-10-26T21:31:32;100969.03;;;18.89;100.00
23733;BME280;12047;53.450;-2.286;2022-10-26T21:36:33;100978.38;;;18.64;100.00
23733;BME280;12047;53.450;-2.286;2022-10-26T21:41:34;100978.13;;;18.36;100.00
23733;BME280;12047;53.450;-2.286;2022-10-26T21:46:36;100978.00;;;18.67;100.00
23733;BME280;12047;53.450;-2.286;2022-10-26T21:51:37;100974.84;;;19.08;100.00
23733;BME280;12047;53.450;-2.286;2022-10-26T21:56:38;100984.69;;;18.71;100.00
23733;BME280;12047;53.450;-2.286;2022-10-26T22:01:39;100973.94;;;18.71;100.00
23733;BME280;12047;53.450;-2.286;2022-10-26T22:06:40;100979.47;;;18.84;100.00
23733;BME280;12047;53.450;-2.286;2022-10-26T22:11:40;100973.50;;;18.45;100.00
23733;BME280;12047;53.450;-2.286;2022-10-26T22:16:41;100973.44;;;18.53;100.00
23733;BME280;12047;53.450;-2.286;2022-10-26T22:21:43;100975.28;;;18.15;100.00
23733;BME280;12047;53.450;-2.286;2022-10-26T22:26:46;100977.94;;;18.00;100.00
23733;BME280;12047;53.450;-2.286;2022-10-26T22:31:46;100984.28;;;18.22;100.00
23733;BME280;12047;53.450;-2.286;2022-10-26T22:36:49;100981.59;;;18.22;100.00
23733;BME280;12047;53.450;-2.286;2022-10-26T22:41:50;100994.19;;;18.21;100.00
23733;BME280;12047;53.450;-2.286;2022-10-26T22:46:51;100988.59;;;18.46;100.00
23733;BME280;12047;53.450;-2.286;2022-10-26T22:51:51;101004.88;;;18.44;100.00
23733;BME280;12047;53.450;-2.286;2022-10-26T22:56:54;101004.19;;;18.27;100.00
23733;BME280;12047;53.450;-2.286;2022-10-26T23:01:55;101000.75;;;17.96;100.00
23733;BME280;12047;53.450;-2.286;2022-10-26T23:06:56;100994.38;;;18.34;100.00
23733;BME280;12047;53.450;-2.286;2022-10-26T23:11:56;101006.53;;;18.45;100.00
23733;BME280;12047;53.450;-2.286;2022-10-26T23:16:57;101001.53;;;18.42;100.00
23733;BME280;12047;53.450;-2.286;2022-10-26T23:21:58;100996.56;;;18.54;100.00
23733;BME280;12047;53.450;-2.286;2022-10-26T23:26:58;101002.75;;;18.77;100.00
23733;BME280;12047;53.450;-2.286;2022-10-26T23:31:59;101003.00;;;18.67;100.00
23733;BME280;12047;53.450;-2.286;2022-10-26T23:37:00;101008.91;;;18.63;100.00
23733;BME280;12047;53.450;-2.286;2022-10-26T23:42:01;101014.72;;;18.52;100.00
23733;BME280;12047;53.450;-2.286;2022-10-26T23:47:02;101018.31;;;18.59;100.00
23733;BME280;12047;53.450;-2.286;2022-10-26T23:52:02;101012.50;;;18.32;100.00
23733;BME280;12047;53.450;-2.286;2022-10-26T23:57:03;101023.75;;;18.13;100.00
